Date,TemperatureHighF,TemperatureAvgF,TemperatureLowF,DewpointHighF,DewpointAvgF,DewpointLowF,HumidityHigh,HumidityAvg,HumidityLow,PressureMaxIn,PressureMinIn,WindSpeedMaxMPH,WindSpeedAvgMPH,GustSpeedMaxMPH,PrecipitationSumIn
2013-1-1,51.1,44.5,37.8,50.8,44.2,37.5,99,99,99,30.09,29.94,10,2,11,0.87
2013-1-2,45.0,38.0,36.0,44.7,37.2,34.6,99,97,84,30.16,29.98,9,3,11,0.02
2013-1-3,47.8,35.7,26.6,46.0,33.3,25.5,99,92,50,30.35,30.13,7,2,8,0.00
2013-1-4,50.0,32.4,21.7,41.8,27.4,21.5,99,84,47,30.42,30.32,7,1,10,0.00
2013-1-5,49.5,35.3,22.5,42.5,33.0,22.2,99,92,72,30.40,30.23,8,2,8,0.06
2013-1-6,49.8,40.0,34.7,46.9,39.6,34.5,99,98,86,30.26,30.13,11,4,12,0.04
2013-1-7,55.2,36.7,24.3,46.0,33.9,24.0,99,90,71,30.38,30.25,8,2,10,0.00
2013-1-8,61.2,40.0,25.7,60.9,39.7,25.5,99,99,92,30.39,30.24,7,2,8,0.00
2013-1-9,53.1,47.6,42.1,52.8,47.3,41.8,99,99,99,30.42,30.29,7,2,11,0.01
2013-1-10,70.9,56.8,45.5,70.6,56.5,45.2,99,99,99,30.41,30.10,20,3,25,0.00
2013-1-11,70.5,64.7,61.7,70.3,64.5,61.4,99,99,99,30.09,29.99,18,7,23,0.05
2013-1-12,74.1,67.2,63.9,73.9,66.0,58.5,99,96,74,30.02,29.89,16,5,16,0.05
2013-1-13,69.4,66.2,61.2,64.6,59.7,57.8,99,80,68,29.94,29.84,20,8,20,0.89
2013-1-14,61.2,42.9,36.7,60.9,42.7,36.4,99,99,99,30.20,29.93,11,4,14,1.52
2013-1-15,43.2,41.0,37.6,42.9,40.7,37.3,99,99,99,30.11,29.92,11,2,11,1.37
2013-1-16,49.3,44.2,41.0,49.0,44.0,40.7,99,99,99,30.00,29.85,12,2,14,0.26
2013-1-17,48.9,37.5,30.7,48.7,37.2,30.5,99,99,96,30.29,29.74,25,8,31,0.73
2013-1-18,53.4,35.0,25.3,40.9,31.1,25.1,99,88,42,30.49,30.29,6,1,7,0.05
2013-1-19,54.7,38.9,23.2,43.4,32.4,23.0,99,80,49,30.40,30.17,17,4,21,0.00
2013-1-20,62.1,44.8,34.2,52.9,40.8,33.5,99,87,66,30.19,30.08,10,2,11,0.00
2013-1-21,49.6,36.0,20.5,45.8,16.7,-27.3,99,54,10,30.21,30.08,14,3,14,0.73
2013-1-22,39.9,29.1,20.8,16.5,7.1,1.9,68,40,22,30.36,30.19,9,3,27,0.00
2013-1-23,49.1,36.7,26.8,29.0,17.1,5.2,70,46,31,30.37,30.13,15,3,27,0.00
2013-1-24,43.5,35.5,23.7,35.1,18.5,3.4,81,52,22,30.39,30.16,17,5,17,0.00
2013-1-25,35.2,31.2,23.4,33.9,26.0,9.7,99,83,50,30.36,30.11,16,3,16,0.02
2013-1-26,53.8,38.4,31.6,36.3,31.4,25.1,99,79,35,30.33,30.19,8,2,8,0.00
2013-1-27,50.0,38.7,25.3,49.4,33.0,25.1,99,82,54,30.42,30.29,13,2,13,0.00
2013-1-28,57.6,51.2,43.0,52.4,44.9,32.7,99,80,58,30.34,30.19,14,6,14,0.00
2013-1-29,68.0,57.2,43.2,67.4,53.7,42.9,99,89,70,30.21,29.82,20,4,20,0.00
2013-1-30,68.9,58.0,42.1,68.6,57.6,41.8,99,99,80,29.82,29.45,26,10,33,2.36
2013-1-31,46.6,38.9,33.1,41.6,29.7,20.4,99,74,37,30.04,29.69,22,9,27,0.00
2013-2-1,43.2,29.6,20.7,33.1,16.1,9.0,92,59,34,30.39,30.00,23,5,24,0.00
2013-2-2,38.3,29.1,19.9,37.1,27.4,17.7,99,93,77,30.38,30.09,14,4,17,0.01
2013-2-3,51.4,38.3,27.5,37.1,30.8,24.3,99,76,41,30.16,30.01,16,5,17,0.04
2013-2-4,49.1,36.3,23.0,31.4,26.9,22.8,99,72,49,30.16,29.97,11,3,11,0.00
2013-2-5,62.2,49.0,41.2,45.4,38.0,28.9,96,67,44,30.03,29.93,14,4,16,0.01
2013-2-6,68.5,47.8,31.6,48.2,35.1,25.8,99,69,22,30.18,30.03,8,1,10,0.00
2013-2-7,50.4,44.3,37.9,46.0,39.0,33.0,99,82,57,30.12,29.92,7,1,7,0.04
2013-2-8,55.6,45.8,37.8,51.2,41.6,30.1,99,86,52,30.24,29.88,17,5,17,0.08
2013-2-9,59.9,41.6,29.5,32.9,28.9,25.7,93,64,31,30.32,30.19,12,4,14,0.00
2013-2-10,61.5,48.4,35.8,51.3,36.9,25.2,95,70,26,30.22,29.96,24,8,36,0.25
2013-2-11,57.9,53.1,40.8,56.1,47.4,33.4,99,83,45,30.11,29.95,17,6,21,0.02
2013-2-12,54.3,44.6,35.6,42.2,34.9,29.1,99,72,40,30.15,29.81,13,2,17,0.06
2013-2-13,43.2,42.4,42.3,42.9,42.2,42.0,99,99,99,29.81,29.73,2,0,3,0.01
2013-2-14,58.3,46.6,33.8,38.1,35.1,33.4,99,67,43,30.05,29.96,10,3,14,0.01
2013-2-15,58.1,43.0,32.4,43.8,36.4,31.6,99,79,48,30.07,29.97,16,3,17,0.08
2013-2-16,40.3,32.5,25.5,35.6,22.7,11.8,99,69,39,30.16,29.99,17,4,23,0.01
2013-2-17,47.5,30.6,16.5,19.4,14.8,11.2,89,55,24,30.28,30.15,13,2,15,0.00
2013-2-18,63.1,45.3,30.0,61.5,32.8,14.7,99,70,24,30.30,30.03,31,8,31,0.00
2013-2-19,54.7,45.2,35.8,51.2,35.7,19.0,99,75,25,30.21,29.95,24,9,30,0.33
2013-2-20,42.3,32.8,22.1,40.2,21.7,7.4,99,70,25,30.25,30.18,9,2,10,0.00
2013-2-21,54.1,38.9,25.9,39.9,23.8,16.2,99,59,25,30.23,29.97,9,4,11,0.47
2013-2-22,55.2,49.3,39.9,47.4,44.7,39.7,99,85,70,30.06,29.98,17,8,21,0.01
2013-2-23,58.3,48.0,44.2,53.5,47.0,44.0,99,96,75,30.01,29.82,7,2,11,0.15
2013-2-24,61.5,41.0,29.8,61.2,37.5,27.3,99,89,39,30.05,29.91,11,1,11,0.00
2013-2-25,59.2,44.5,33.6,44.0,32.2,26.1,99,64,39,30.03,29.75,13,3,13,0.00
2013-2-26,60.6,51.1,39.6,52.4,44.8,34.2,99,80,63,29.74,29.45,27,9,30,0.34
2013-2-27,53.8,43.3,38.8,38.6,35.0,32.9,95,73,48,29.87,29.72,18,7,18,0.00
2013-2-28,40.6,37.3,35.4,33.5,28.0,24.9,84,69,61,30.01,29.83,16,6,18,0.00
2013-3-1,40.1,36.6,33.1,33.7,31.2,27.1,99,81,71,30.00,29.94,10,4,11,0.00
2013-3-2,38.3,34.0,30.9,34.5,29.7,22.7,99,85,64,30.06,29.93,17,4,19,0.06
2013-3-3,34.0,29.1,26.4,26.2,23.1,19.2,92,79,62,30.09,30.04,10,4,12,0.00
2013-3-4,58.8,44.4,18.9,55.0,25.4,17.6,99,52,22,30.20,29.95,7,2,9,0.00
2013-3-5,55.2,46.2,35.8,55.0,42.4,28.0,99,88,48,30.01,29.62,23,7,35,0.73
2013-3-6,51.6,31.7,23.0,41.7,31.1,22.8,99,98,65,30.10,29.87,19,7,24,0.02
2013-3-7,44.4,36.7,32.2,44.2,35.3,31.9,99,95,68,30.02,29.91,13,6,14,0.01
2013-3-8,58.1,40.4,27.3,55.9,35.0,21.7,99,87,26,30.07,29.95,14,4,18,0.00
2013-3-9,65.8,46.8,29.7,60.5,34.5,29.4,99,68,31,29.99,29.79,10,3,11,0.00
2013-3-10,73.0,60.5,45.0,39.6,32.4,28.4,69,37,20,29.80,29.66,24,8,24,0.00
2013-3-11,63.7,57.2,45.0,56.7,49.8,40.1,99,78,44,29.68,29.41,29,11,31,0.87
2013-3-12,60.6,45.1,37.0,44.5,34.1,29.3,99,68,35,29.78,29.58,8,3,12,0.00
2013-3-13,47.5,38.6,31.6,33.9,26.3,18.9,94,63,37,30.03,29.77,16,5,20,0.00
2013-3-14,32.0,30.3,28.9,19.3,18.4,17.8,64,61,57,30.04,30.01,14,5,14,0.00
2013-3-18,64.8,58.2,50.7,55.5,52.1,47.7,99,81,62,29.59,29.42,21,9,21,0.57
2013-3-19,63.5,50.8,34.9,53.0,33.0,13.9,99,58,21,29.81,29.54,14,5,14,0.02
2013-3-20,57.7,44.9,32.4,33.0,20.9,11.6,81,42,20,29.83,29.57,12,4,12,0.00
2013-3-21,46.9,33.8,23.2,28.1,15.8,11.9,81,50,25,29.73,29.64,11,4,11,0.00
2013-3-22,46.2,36.1,25.2,30.4,21.9,16.4,81,58,37,29.79,29.70,6,2,6,0.00
2013-3-23,55.8,45.3,37.8,45.4,39.8,30.2,99,82,63,29.74,29.45,8,3,8,0.07
2013-3-24,63.3,48.0,42.3,56.2,43.5,32.3,99,85,67,29.52,29.10,27,10,28,0.71
2013-3-25,42.4,35.5,32.0,33.7,27.2,24.7,85,72,62,29.75,29.33,25,12,28,0.00
2013-3-26,42.1,34.8,30.7,31.2,28.5,25.4,94,79,56,29.91,29.74,14,5,16,0.00
2013-3-27,55.4,44.9,29.5,29.0,25.1,21.2,91,48,28,30.02,29.92,13,5,14,0.00
2013-3-28,62.1,46.7,25.2,34.2,27.9,24.1,99,52,27,30.03,29.82,10,4,13,0.00
2013-3-29,45.1,41.0,28.8,44.3,36.2,24.0,99,84,58,29.94,29.78,7,2,8,0.05
2013-3-30,65.3,52.2,42.4,52.6,46.7,42.2,99,84,50,29.80,29.55,7,3,8,0.15
2013-3-31,63.9,58.0,52.9,59.4,56.9,52.6,99,96,76,29.54,29.37,13,5,14,0.54
2013-4-1,67.1,58.9,39.4,66.8,57.6,39.1,99,96,67,29.57,29.42,18,5,18,0.01
2013-4-2,60.1,48.2,33.4,59.8,45.6,27.5,99,92,38,29.76,29.59,11,4,11,0.00
2013-4-3,59.2,52.2,39.0,58.9,47.2,27.2,99,87,37,29.78,29.70,17,7,18,0.00
2013-4-4,50.0,43.8,40.6,44.0,39.5,27.4,99,88,43,29.72,29.52,8,2,9,0.90
2013-4-5,41.2,41.0,40.6,40.9,40.7,40.4,99,99,99,29.55,29.51,2,1,2,0.00
2013-4-6,74.1,56.4,34.2,73.8,56.1,33.9,99,99,92,29.74,29.56,15,4,15,0.00
2013-4-7,74.3,65.1,55.6,74.0,64.3,45.7,99,97,66,29.73,29.56,16,8,16,0.00
2013-4-8,78.6,69.4,59.7,78.3,69.1,59.4,99,99,99,29.66,29.53,19,8,19,0.00
2013-4-9,83.5,71.6,57.9,82.5,70.7,57.6,99,97,73,29.71,29.50,17,6,17,0.00
2013-4-10,86.5,75.5,65.7,84.8,67.0,57.8,99,78,46,29.62,29.36,15,7,15,0.00
2013-4-11,84.0,76.0,61.9,83.8,73.3,58.2,99,92,59,29.51,29.22,32,8,34,0.46
2013-4-12,69.4,58.6,48.2,69.2,58.2,46.7,99,98,86,29.50,29.12,16,5,16,0.20
2013-4-13,79.7,60.0,39.9,79.5,59.7,39.7,99,99,99,29.63,29.50,10,2,13,0.00
2013-4-14,71.8,59.0,41.2,71.5,58.3,40.9,99,98,74,29.59,29.44,14,3,14,0.00
2013-4-24,74.3,62.1,45.9,73.1,60.8,45.6,99,96,57,29.76,29.55,14,7,14,0.24
2013-4-25,71.2,53.4,38.1,70.9,51.9,37.9,99,95,65,29.88,29.76,10,3,10,0.00
2013-4-26,73.8,55.5,35.4,73.5,48.2,35.2,99,82,27,29.93,29.79,7,2,7,0.00
2013-4-27,57.7,53.3,51.1,56.7,52.6,45.5,99,98,65,29.91,29.66,11,2,11,1.00
2013-4-28,60.1,57.4,52.3,59.8,57.1,52.1,99,99,99,29.68,29.49,13,4,13,1.02
2013-4-29,77.7,63.5,55.0,71.8,58.2,54.0,99,86,45,29.58,29.42,10,4,10,0.02
2013-4-30,82.4,66.6,48.9,82.1,65.2,48.7,99,96,65,29.61,29.49,9,2,9,0.00
2013-5-1,81.3,71.6,56.1,81.1,66.3,54.8,99,85,56,29.69,29.59,7,2,8,0.01
2013-5-2,65.8,64.1,60.6,61.4,54.5,52.1,99,71,66,29.69,29.66,5,3,7,0.00
2013-5-3,78.3,64.9,54.7,78.0,64.6,54.4,99,99,99,29.65,29.48,12,2,12,0.00
2013-5-4,64.2,56.9,52.7,64.0,56.5,51.7,99,98,72,29.49,29.39,7,2,10,0.99
2013-5-5,58.5,52.8,48.9,58.2,52.6,48.7,99,99,99,29.39,29.28,12,3,15,1.58
2013-5-6,63.9,53.1,43.2,60.4,50.7,42.9,99,92,65,29.42,29.30,15,3,15,0.15
2013-5-7,76.6,57.1,41.7,76.4,56.2,41.5,99,97,66,29.47,29.37,8,1,9,0.18
2013-5-8,77.9,63.9,55.6,71.5,61.0,55.3,99,92,56,29.57,29.43,12,4,14,0.00
2013-5-9,85.5,69.3,53.2,85.2,61.7,53.0,99,80,42,29.63,29.54,11,2,12,0.00
2013-5-10,75.9,68.4,61.5,64.3,59.5,55.6,90,74,58,29.61,29.47,14,3,19,0.00
2013-5-11,76.3,65.9,54.0,70.8,62.5,53.7,99,89,66,29.50,29.40,11,2,13,0.87
2013-5-12,69.6,57.9,44.2,55.0,42.5,30.3,99,62,26,29.66,29.50,11,3,20,0.01
2013-5-13,72.1,54.7,36.1,49.1,38.6,32.5,99,61,25,29.78,29.64,11,3,14,0.00
2013-5-14,81.0,63.0,41.5,57.5,48.9,39.1,94,64,40,29.76,29.55,16,4,16,0.00
2013-5-15,89.6,74.3,62.4,62.9,58.4,55.6,79,60,38,29.68,29.54,11,4,12,0.00
2013-5-16,90.1,73.3,59.2,64.8,61.1,55.8,91,68,39,29.62,29.51,14,2,14,0.00
2013-5-17,87.8,73.3,61.7,70.0,65.0,61.4,99,77,47,29.63,29.55,11,2,12,0.01
2013-5-18,82.2,69.7,63.5,73.2,67.8,63.2,99,94,73,29.61,29.52,8,2,13,0.46
2013-5-19,78.1,67.5,61.0,72.8,66.8,60.7,99,98,80,29.61,29.47,14,3,16,0.27
2013-5-20,88.2,71.9,56.7,83.7,66.8,56.4,99,86,58,29.62,29.52,8,2,10,0.00
2013-5-21,93.9,75.1,65.1,84.2,70.4,62.5,99,88,48,29.56,29.45,18,3,21,0.06
2013-5-22,88.3,75.6,65.8,81.6,70.6,62.6,99,87,44,29.49,29.36,16,5,21,0.01
2013-5-23,84.7,73.5,64.9,84.5,72.6,60.9,99,97,76,29.56,29.43,15,5,18,0.02
2013-5-24,76.6,64.1,50.9,76.4,62.9,43.6,99,96,45,29.78,29.56,14,5,15,0.00
2013-5-25,82.2,62.2,43.9,82.0,60.7,43.6,99,96,42,29.87,29.69,9,2,12,0.00
2013-5-26,84.6,64.7,50.5,80.9,62.2,47.5,99,94,28,29.82,29.71,7,2,8,0.00
2013-5-27,87.3,69.4,53.6,76.0,61.4,53.3,99,79,44,29.76,29.65,14,3,16,0.00
2013-5-28,88.7,78.7,70.0,88.4,78.4,69.7,99,99,99,29.70,29.62,11,6,11,0.00
2013-5-29,94.3,83.4,68.5,93.0,74.1,59.2,99,78,36,29.74,29.63,11,4,13,0.00
2013-5-30,92.3,78.1,62.8,69.2,64.7,61.8,99,66,40,29.75,29.64,12,4,14,0.00
2013-5-31,91.9,79.2,67.3,68.4,65.9,63.0,89,65,45,29.72,29.60,15,4,18,0.00
2013-6-1,89.8,78.9,70.9,73.9,68.9,64.1,99,73,52,29.64,29.50,16,5,16,0.25
2013-6-2,85.5,72.7,62.2,85.2,70.7,62.0,99,94,66,29.53,29.41,14,3,14,3.24
2013-6-3,86.4,73.0,64.4,86.1,72.7,64.1,99,99,99,29.54,29.43,9,2,9,0.00
2013-6-4,92.8,73.6,58.5,88.3,72.0,58.2,99,95,65,29.58,29.51,9,2,9,0.01
2013-6-5,89.2,72.2,64.8,89.0,71.9,64.5,99,99,99,29.58,29.47,17,2,18,0.81
2013-6-6,87.1,72.9,61.9,86.9,72.6,61.6,99,99,99,29.47,29.30,10,2,12,0.00
2013-6-7,88.5,72.9,66.7,88.3,72.7,66.5,99,99,99,29.41,29.25,11,2,15,0.94
2013-6-8,88.9,72.3,64.4,88.7,72.0,64.1,99,99,99,29.62,29.39,11,2,11,0.00
2013-6-9,90.0,73.8,66.0,89.8,73.6,65.8,99,99,99,29.62,29.50,13,2,14,0.21
2013-6-10,84.9,74.5,68.2,84.7,74.3,67.9,99,99,99,29.51,29.43,18,6,18,0.63
2013-6-11,91.2,77.4,67.3,91.0,77.1,67.0,99,99,99,29.58,29.49,9,2,10,0.05
2013-6-12,94.1,83.7,69.6,93.9,83.5,69.3,99,99,99,29.61,29.50,11,4,14,0.04
2013-6-13,90.0,80.1,71.8,89.8,79.9,71.5,99,99,99,29.51,29.29,23,6,25,0.00
2013-6-14,85.1,73.7,60.1,76.9,68.4,59.8,99,85,61,29.58,29.42,15,5,16,0.00
2013-6-15,90.9,74.1,58.8,81.6,66.3,58.6,99,80,46,29.65,29.57,12,3,13,0.00
2013-6-16,94.3,79.4,64.9,81.8,71.8,64.7,99,80,47,29.67,29.55,13,4,14,0.01
2013-6-17,90.7,75.5,70.0,90.5,74.4,69.7,99,96,64,29.60,29.47,17,3,17,0.44
2013-6-18,80.6,71.7,65.1,80.4,71.5,64.9,99,99,99,29.50,29.39,15,4,19,0.94
2013-6-19,88.2,73.1,62.2,81.6,67.4,62.0,99,85,45,29.62,29.47,8,2,11,0.00
2013-6-20,90.1,72.8,64.6,84.7,69.7,64.3,99,92,52,29.75,29.16,6,1,7,1.38
2013-6-21,90.7,74.0,66.4,87.8,71.7,66.1,99,93,56,29.79,29.69,6,1,7,0.01
2013-6-22,92.8,77.3,64.0,89.0,75.5,63.8,99,95,66,29.77,29.63,8,2,9,0.01
2013-6-23,91.6,75.8,64.4,91.4,75.3,64.1,99,98,74,29.74,29.65,11,1,11,0.11
2013-6-24,91.0,78.6,68.9,90.8,78.4,68.6,99,99,99,29.75,29.62,10,3,11,0.00
2013-6-25,91.6,78.0,69.8,91.4,76.8,69.5,99,96,64,29.71,29.55,11,3,11,0.00
2013-6-26,89.6,79.5,69.8,89.4,79.3,69.5,99,99,99,29.60,29.43,11,3,17,0.00
2013-6-27,90.1,79.6,70.5,89.9,79.3,70.3,99,99,99,29.50,29.34,15,6,17,0.12
2013-6-28,91.4,78.6,69.4,87.2,75.9,69.2,99,92,64,29.41,29.22,14,3,18,0.00
2013-6-29,90.9,77.3,67.5,86.0,71.1,63.5,99,84,45,29.28,29.21,11,3,14,0.01
2013-6-30,90.7,78.3,65.1,74.8,68.3,60.1,99,75,37,29.38,29.24,10,2,11,0.00
2013-7-1,86.5,72.8,63.5,78.4,70.7,63.2,99,94,68,29.47,29.33,20,2,22,0.20
2013-7-2,91.2,75.6,66.4,79.0,72.4,66.1,99,91,61,29.61,29.47,8,3,11,0.84
2013-7-3,77.0,70.6,67.5,76.8,70.3,67.2,99,99,95,29.69,29.60,9,1,11,0.45
2013-7-4,79.2,71.6,66.4,78.7,71.3,66.1,99,99,95,29.69,29.59,4,1,7,0.44
2013-7-5,82.2,74.1,69.1,77.8,73.0,68.8,99,96,85,29.70,29.61,11,3,14,0.01
2013-7-6,85.1,71.2,67.8,79.6,70.7,67.6,99,98,82,29.68,29.61,16,2,19,1.32
2013-7-7,73.9,70.3,68.0,73.7,70.1,67.7,99,99,99,29.69,29.59,6,1,8,1.51
2013-7-8,93.2,77.0,68.5,82.6,73.4,68.3,99,90,56,29.72,29.63,7,1,8,0.00
2013-7-9,93.9,79.6,70.5,82.5,76.7,70.3,99,92,62,29.70,29.59,9,2,10,0.00
2013-7-10,92.8,77.0,70.3,83.5,75.6,70.1,99,96,72,29.66,29.49,13,2,21,0.51
2013-7-11,92.3,78.8,68.9,80.1,74.6,68.6,99,88,63,29.54,29.42,10,3,10,0.04
2013-7-12,85.6,77.4,67.1,76.9,72.0,66.8,99,85,60,29.54,29.44,13,5,14,0.01
2013-7-13,91.4,76.1,64.6,78.2,71.6,64.3,99,87,59,29.63,29.49,11,2,12,0.00
2013-7-14,91.2,76.1,69.1,91.0,75.8,68.8,99,99,90,29.76,29.61,9,2,9,0.34
2013-7-15,96.6,79.5,67.1,89.8,76.3,66.7,99,91,51,29.84,29.74,8,2,11,0.00
2013-7-16,94.8,80.9,68.0,90.7,77.1,67.7,99,90,53,29.87,29.77,11,2,11,0.00
2013-7-17,95.0,81.9,70.3,94.8,81.6,70.1,99,99,99,29.84,29.70,12,3,15,0.00
2013-7-18,97.5,78.8,68.7,97.3,78.6,68.5,99,99,99,29.81,29.61,10,2,15,0.00
2013-7-19,96.4,82.0,70.5,96.3,81.7,70.3,99,99,99,29.68,29.52,12,3,12,0.00
2013-7-20,95.2,81.9,70.9,95.0,81.7,70.6,99,99,99,29.60,29.47,11,3,13,0.00
2013-7-21,88.7,76.8,70.7,88.5,76.6,70.4,99,99,99,29.58,29.49,11,3,12,0.04
2013-7-22,86.9,75.0,70.2,86.7,74.8,69.9,99,99,99,29.56,29.39,21,4,21,0.50
2013-7-23,86.9,75.8,70.2,86.7,75.6,69.9,99,99,99,29.49,29.37,15,3,20,0.05
2013-7-24,90.9,79.4,72.1,90.7,79.2,71.8,99,99,99,29.44,29.35,8,2,8,0.00
2013-7-25,91.4,76.1,63.3,91.2,75.8,63.1,99,99,71,29.60,29.43,8,3,10,0.00
2013-7-26,90.9,75.0,61.0,90.7,74.8,60.7,99,99,99,29.60,29.52,10,2,11,0.00
2013-7-27,88.3,74.2,67.5,88.1,74.0,67.2,99,99,99,29.56,29.43,9,2,11,0.01
2013-7-28,87.1,74.9,67.3,86.9,74.7,67.0,99,99,99,29.64,29.47,8,2,11,0.21
2013-7-29,88.5,70.8,59.9,88.3,70.5,59.6,99,99,99,29.76,29.61,10,2,11,0.00
2013-7-30,90.7,73.3,58.6,90.5,73.1,58.4,99,99,99,29.76,29.67,5,1,6,0.00
2013-7-31,79.0,70.2,67.6,78.7,69.9,67.4,99,99,99,29.70,29.51,8,2,9,0.13
2013-8-1,90.3,79.1,68.7,90.1,78.9,68.5,99,99,99,29.55,29.48,13,4,13,0.01
2013-8-2,94.3,76.4,63.9,94.1,76.2,63.6,99,99,99,29.60,29.51,9,2,10,0.00
2013-8-3,86.9,77.3,68.0,86.7,77.1,67.7,99,99,99,29.61,29.54,10,2,11,0.00
2013-8-4,88.7,80.8,69.8,88.5,80.6,69.5,99,99,99,29.61,29.55,11,4,12,0.00
2013-8-5,90.1,78.9,59.9,89.9,78.6,59.6,99,99,99,29.64,29.53,11,2,11,0.00
2013-8-6,89.6,80.2,67.5,89.4,80.0,67.2,99,99,99,29.56,29.51,6,0,9,0.02
2013-8-7,88.7,78.0,72.1,88.5,77.8,71.9,99,99,99,29.59,29.50,9,3,12,0.66
2013-8-8,91.2,74.1,69.8,90.9,73.9,69.5,99,99,99,29.60,29.52,18,3,27,0.77
2013-8-9,93.9,78.1,70.9,93.6,77.9,70.6,99,99,99,29.64,29.54,11,2,15,0.17
2013-8-10,91.2,78.2,72.7,90.9,77.9,72.4,99,99,99,29.65,29.59,14,2,14,0.27
2013-8-11,91.4,78.5,70.5,91.2,78.3,70.2,99,99,99,29.69,29.63,14,3,14,0.20
2013-8-12,88.5,77.4,68.9,88.3,77.1,68.6,99,99,99,29.67,29.52,14,2,17,0.39
2013-8-13,89.1,79.1,71.6,88.9,78.8,71.3,99,99,99,29.54,29.42,13,4,13,0.07
2013-8-14,82.0,74.6,66.4,81.8,74.3,66.1,99,99,99,29.57,29.47,13,6,13,0.00
2013-8-15,86.0,69.5,59.2,85.7,69.2,58.9,99,99,99,29.62,29.56,5,2,6,0.05
2013-8-16,81.3,69.0,61.0,81.0,68.8,60.7,99,99,99,29.63,29.57,8,2,8,0.01
2013-8-17,71.4,67.6,65.3,71.2,67.3,65.0,99,99,99,29.65,29.59,4,1,4,0.52
2013-8-18,80.2,71.7,66.2,80.0,71.5,65.9,99,99,99,29.70,29.61,11,2,11,0.19
2013-8-19,84.0,73.5,67.5,83.8,73.3,67.2,99,99,99,29.67,29.58,4,1,6,0.21
2013-8-20,89.2,77.1,65.3,89.0,76.9,65.0,99,99,99,29.70,29.61,5,1,7,0.01
2013-8-21,80.2,73.3,68.0,80.0,73.0,67.7,99,99,99,29.75,29.65,11,2,11,0.38
2013-8-22,96.6,80.6,67.5,96.4,80.3,67.2,99,99,99,29.68,29.58,7,2,7,0.01
2013-8-23,95.2,77.5,66.4,95.0,77.3,66.1,99,99,99,29.63,29.54,14,2,17,0.00
2013-8-24,69.1,68.5,68.0,68.8,68.2,67.7,99,99,99,29.68,29.59,3,1,4,0.00
2013-8-25,90.7,78.5,60.8,90.5,78.3,60.5,99,99,99,29.88,29.78,8,2,8,0.00
2013-8-26,76.8,65.3,61.3,76.6,65.1,61.1,99,99,99,29.83,29.81,2,0,3,0.00
2013-8-27,94.8,76.1,63.3,94.5,75.8,63.0,99,99,99,29.72,29.60,4,1,4,0.00
2013-8-28,95.2,79.0,66.6,94.9,78.7,66.3,99,99,99,29.63,29.54,9,1,9,0.00
2013-8-29,92.1,78.3,70.0,91.8,78.0,69.7,99,99,99,29.58,29.50,12,2,12,0.00
2013-8-30,91.9,79.0,68.4,91.6,78.7,68.1,99,99,99,29.55,29.47,11,2,11,0.00
2013-8-31,94.8,80.9,71.8,94.5,80.6,71.5,99,99,99,29.51,29.40,8,3,8,0.00
2013-9-1,88.5,76.6,71.1,88.3,76.4,70.8,99,99,99,29.47,29.41,14,4,16,0.01
2013-9-2,87.8,76.2,68.4,87.5,75.9,68.1,99,99,99,29.50,29.40,11,3,11,0.00
2013-9-3,89.6,78.4,68.9,89.4,78.1,68.6,99,99,99,29.57,29.39,7,3,8,0.00
2013-9-4,92.7,78.6,61.7,92.5,78.3,61.4,99,99,99,29.68,29.56,7,2,8,0.00
2013-9-5,89.6,73.3,62.6,89.4,73.0,62.3,99,99,99,29.71,29.63,9,2,10,0.00
2013-9-6,96.4,76.7,60.4,96.3,76.5,60.2,99,99,99,29.70,29.61,7,2,8,0.00
2013-9-7,80.2,71.7,63.7,80.0,71.4,63.4,99,99,99,29.66,29.56,4,1,8,0.00
2013-9-8,93.6,81.0,64.2,93.2,80.8,64.0,99,99,99,29.58,29.50,7,2,8,0.00
2013-9-9,95.7,79.6,65.3,95.5,79.4,65.0,99,99,99,29.68,29.57,11,2,11,0.00
2013-9-10,99.1,82.6,66.0,99.0,82.4,65.8,99,99,99,29.78,29.67,27,2,27,0.43
2013-9-11,94.5,78.8,68.5,94.3,78.6,68.3,99,99,99,29.77,29.65,7,1,7,0.00
2013-9-12,90.1,78.0,69.4,89.9,77.8,69.1,99,99,99,29.67,29.46,13,3,14,0.00
2013-9-13,72.3,68.6,65.8,72.0,68.3,65.6,99,99,99,29.50,29.45,0,0,0,0.00
2013-9-14,83.5,64.9,50.2,83.2,64.6,49.9,99,99,99,29.61,29.50,10,3,10,0.00
2013-9-15,88.5,68.7,52.7,88.2,68.5,52.4,99,99,99,29.69,29.61,11,1,11,0.00
2013-9-16,86.4,72.5,60.4,86.1,72.2,60.2,99,99,99,29.71,29.64,7,2,8,0.00
2013-9-17,82.2,71.5,62.8,82.0,71.2,62.5,99,99,99,29.73,29.68,13,3,13,0.00
2013-9-18,82.9,69.9,63.9,82.6,69.6,63.6,99,99,99,29.75,29.64,8,3,10,0.00
2013-9-19,89.2,71.5,59.9,89.0,71.2,59.6,99,99,99,29.69,29.59,8,1,9,0.00
2013-9-20,91.2,74.2,64.2,90.9,74.0,64.0,99,99,99,29.63,29.42,11,3,12,0.00
2013-9-21,75.2,69.0,62.6,75.0,68.7,62.3,99,99,99,29.44,29.28,14,4,17,1.22
2013-9-22,79.0,67.3,53.2,78.7,67.0,53.0,99,99,99,29.43,29.33,14,4,14,0.00
2013-9-23,90.1,66.5,51.8,89.8,66.3,51.5,99,99,99,29.53,29.43,7,2,8,0.00
2013-9-24,76.3,66.2,56.3,76.0,66.0,56.0,99,99,99,29.55,29.39,5,2,7,0.00
2013-9-25,71.6,66.1,63.9,71.3,65.8,63.6,99,99,99,29.37,29.27,5,1,6,0.01
2013-9-26,83.1,70.4,60.1,82.9,70.1,59.8,99,99,99,29.52,29.35,9,1,9,0.01
2013-9-27,85.6,71.9,53.6,85.4,71.7,53.3,99,99,99,29.64,29.53,8,2,8,0.00
2013-9-28,86.0,73.6,62.1,85.8,73.4,61.8,99,99,99,29.71,29.61,8,3,10,0.00
2013-9-29,72.3,64.4,58.3,72.1,64.1,58.0,99,99,99,29.64,29.51,8,2,11,0.00
2013-9-30,74.7,61.3,53.6,74.4,61.0,53.3,99,99,99,29.59,29.53,4,0,5,0.00
2013-10-1,88.5,68.9,58.3,88.2,68.6,58.0,99,99,99,29.65,29.55,8,1,8,0.00
2013-10-2,88.9,71.6,60.3,88.6,71.3,60.0,99,99,99,29.66,29.59,4,1,4,0.00
2013-10-3,86.9,76.4,64.9,86.7,76.2,64.7,99,99,99,29.63,29.59,9,3,11,0.00
2013-10-27,84.9,69.3,56.8,84.6,69.0,56.6,99,99,99,29.70,29.60,7,2,7,0.00
2013-10-28,78.1,66.7,58.8,77.8,66.4,58.5,99,99,99,29.64,29.54,6,3,6,0.00
2013-10-29,84.4,66.0,53.8,84.1,65.7,53.5,99,99,99,29.58,29.50,9,2,9,0.00
2013-10-30,88.5,68.7,58.3,88.2,68.4,58.0,99,99,99,29.65,29.53,8,1,8,0.00
2013-10-31,88.9,71.1,60.3,88.6,70.8,60.0,99,99,99,29.66,29.59,4,1,4,0.00
2013-11-1,87.4,71.0,52.5,87.1,70.8,52.2,99,99,99,29.64,29.59,9,1,9,0.01
2013-11-2,62.1,52.4,43.3,61.8,52.2,43.1,99,99,99,29.40,29.29,5,2,5,0.00
2013-11-3,62.4,46.8,34.9,62.1,46.5,34.6,99,99,99,29.78,29.57,9,2,9,0.00
2013-11-4,71.8,52.9,32.7,71.5,52.6,32.5,99,99,99,29.91,29.83,8,4,8,0.00
2013-11-5,76.8,55.4,41.7,76.6,55.1,41.5,99,99,99,29.94,29.80,5,1,7,0.00
2013-11-6,78.6,66.9,50.5,78.4,66.6,50.3,99,99,99,29.77,29.55,19,8,21,0.00
2013-11-7,64.9,52.9,43.0,64.7,52.6,42.7,99,99,87,29.75,29.51,11,4,17,0.00
2013-11-8,58.6,41.0,29.7,58.4,40.7,29.4,99,99,99,29.89,29.78,14,2,14,0.00
2013-11-9,56.1,43.9,28.0,55.9,43.6,27.8,99,99,99,29.85,29.73,11,3,11,0.00
2013-11-10,73.9,55.7,36.9,65.4,38.9,22.9,99,62,20,29.83,29.72,8,2,8,0.00
2013-11-11,67.8,50.8,29.5,67.5,37.6,24.1,99,66,30,29.84,29.67,8,2,8,0.00
2013-11-12,51.6,43.2,30.4,51.4,40.0,17.1,99,90,46,30.03,29.66,14,6,16,0.00
2013-11-13,47.3,32.5,24.3,47.0,29.9,16.4,99,91,60,30.17,30.01,14,5,15,0.00
2013-11-14,64.8,45.5,19.2,64.3,44.7,19.0,99,97,68,30.03,29.83,9,2,11,0.00
2013-11-15,49.5,43.9,35.6,49.2,42.2,28.0,99,95,48,29.84,29.69,11,2,11,0.00
2013-11-16,70.5,57.4,43.0,60.6,54.8,42.7,99,92,69,29.75,29.60,17,4,17,0.87
2013-11-17,70.0,65.6,62.6,69.0,62.8,59.2,99,91,74,29.61,29.32,18,10,21,0.66
2013-11-18,69.3,57.6,47.1,69.0,43.5,31.1,99,63,30,29.63,29.33,15,4,19,0.20
2013-11-19,55.9,46.4,38.5,34.2,28.0,22.0,80,50,27,29.72,29.62,17,6,17,0.00
2013-11-20,66.9,50.8,31.5,37.8,27.9,15.3,99,49,15,29.83,29.68,10,3,11,0.00
2013-11-21,66.2,52.8,39.6,54.2,42.7,32.2,99,70,44,29.87,29.77,11,3,11,0.00
2013-11-22,60.1,56.4,52.0,59.8,56.1,51.7,99,99,98,29.81,29.68,10,4,10,0.13
2013-11-23,53.1,45.1,35.6,52.4,37.1,18.0,99,76,47,29.87,29.68,14,5,14,0.05
2013-11-24,40.1,30.0,23.2,15.8,6.8,-2.5,65,39,16,30.08,29.93,18,6,21,0.05
2013-11-25,39.2,31.5,25.0,20.2,11.4,5.6,60,44,28,30.00,29.81,6,2,6,0.00
2013-11-26,42.3,37.8,32.2,42.0,37.6,31.9,99,99,99,29.73,29.29,11,2,11,1.69
2013-11-27,36.0,31.2,25.5,35.7,25.7,14.9,99,81,55,29.83,29.35,15,4,18,0.08
2013-11-28,47.3,30.0,17.4,24.8,18.4,8.3,99,67,20,30.01,29.87,7,1,9,0.08
2013-11-29,54.5,37.2,21.4,36.3,20.8,9.9,99,62,17,30.11,30.00,8,2,8,0.08
2013-11-30,57.9,37.4,23.9,41.0,26.6,20.9,99,73,24,30.08,29.84,8,2,11,0.08
2013-12-1,56.1,44.1,26.2,37.2,31.2,24.3,99,63,34,29.84,29.55,7,2,8,0.08
2013-12-2,53.1,46.9,43.9,49.7,43.5,34.6,99,89,64,29.55,29.34,7,2,8,0.00
2013-12-3,62.1,54.3,45.5,59.3,53.3,45.2,99,96,86,29.39,29.34,12,2,14,0.01
2013-12-4,72.9,65.5,52.7,64.7,62.1,52.4,99,89,70,29.47,29.37,15,6,16,0.00
2013-12-5,74.3,68.6,64.8,71.8,68.0,64.5,99,98,90,29.50,29.36,14,6,14,0.02
2013-12-6,70.2,52.3,38.8,69.9,52.0,38.6,99,99,99,29.65,29.32,14,4,14,1.25
2013-12-7,40.5,37.3,35.6,40.2,37.0,35.3,99,99,99,29.87,29.65,17,6,17,0.02
2013-12-8,44.6,40.2,35.2,44.3,40.0,35.0,99,99,99,29.81,29.57,11,2,11,0.70
2013-12-9,53.2,46.1,40.1,53.0,45.8,39.8,99,99,99,29.65,29.50,9,4,11,0.44
2013-12-10,45.0,36.3,25.2,39.8,34.4,24.9,99,93,68,29.87,29.48,11,3,11,0.56
2013-12-11,52.2,37.2,20.1,42.3,32.3,19.9,99,84,52,29.98,29.85,10,2,10,0.01
2013-12-12,39.2,29.5,23.5,29.3,23.1,14.2,99,78,44,30.06,29.92,9,2,9,0.01
2013-12-13,54.3,35.0,19.0,30.5,19.1,-1.1,99,61,10,29.97,29.66,4,1,5,0.04
2013-12-14,52.3,45.1,36.5,52.1,43.6,27.6,99,95,64,29.71,29.33,15,4,20,0.51
2013-12-15,44.1,35.4,28.2,43.8,35.2,28.0,99,99,98,29.75,29.40,10,4,14,0.00
2013-12-16,52.7,38.6,24.4,40.6,34.4,24.2,99,86,62,29.79,29.66,14,4,14,0.00
2013-12-17,59.9,49.9,36.1,37.8,33.9,23.4,93,56,42,29.78,29.56,17,8,21,0.00
2013-12-18,53.1,35.6,24.3,35.4,22.6,10.0,99,69,18,29.90,29.78,6,1,8,0.00
2013-12-19,63.1,43.4,24.4,34.6,19.0,5.0,99,48,10,29.86,29.68,12,3,13,0.00
2013-12-20,68.2,56.9,45.7,53.7,28.5,13.1,74,35,20,29.73,29.59,14,6,14,0.00
2013-12-21,70.9,66.4,61.7,69.7,63.5,53.7,99,91,74,29.57,29.28,20,10,21,0.05
2013-12-22,71.4,62.0,55.8,70.0,61.3,55.5,99,98,87,29.43,29.26,21,10,28,1.44
2013-12-23,55.4,46.7,39.4,55.1,46.4,39.1,99,99,96,29.73,29.49,11,5,11,0.25
2013-12-24,39.0,32.3,24.6,29.4,21.0,8.6,86,66,30,29.98,29.83,11,4,11,0.25
2013-12-25,47.8,31.1,17.4,24.8,18.0,12.5,99,65,24,29.99,29.85,9,2,11,0.00
2013-12-26,53.2,38.2,25.3,32.6,20.2,8.7,94,57,17,29.93,29.83,6,2,8,0.01
2013-12-27,60.4,38.4,22.1,36.9,20.7,1.9,99,61,10,30.01,29.90,6,1,7,0.01
2013-12-28,39.7,34.1,25.2,39.1,33.8,24.9,99,99,93,29.95,29.47,7,1,7,0.67
2013-12-29,48.4,42.5,37.6,47.9,42.2,37.3,99,99,99,29.58,29.41,8,3,11,0.43
2013-12-30,43.2,38.4,35.8,42.9,37.9,34.5,99,98,89,29.75,29.56,6,2,6,0.00
2013-12-31,44.4,31.8,26.1,35.5,27.5,21.3,99,87,40,29.92,29.73,4,1,6,0.00
2014-1-1,49.1,35.4,22.5,35.1,29.4,22.2,99,80,43,29.89,29.63,8,2,9,0.00
2014-1-2,46.4,34.1,21.0,45.6,30.3,9.9,99,86,61,29.76,29.32,21,6,21,0.51